Time;durP1;ratioP1;P1;durP2;ratioP2;P2;SDS_P1;SDS_P2;PMS_P1;PMS_P2;Temp;Humidity;BMP_temperature;BMP_pressure;BME280_temperature;BME280_humidity;BME280_pressure;Samples;Min_cycle;Max_cycle;Signal;HPM_P1;HPM_P2
2022/03/06 00:00:08;;;;;;;34.03;14.20;;;0.20;98.90;;;;;;5011043;28;20037;-57
2022/03/06 00:02:34;;;;;;;28.97;13.93;;;0.20;99.10;;;;;;5011501;28;20057;-55
2022/03/06 00:04:59;;;;;;;28.67;13.10;;;0.20;99.20;;;;;;5015859;28;20083;-56
2022/03/06 00:07:25;;;;;;;31.67;13.63;;;0.20;99.30;;;;;;5024452;28;20018;-55
2022/03/06 00:09:50;;;;;;;41.10;15.67;;;0.20;99.30;;;;;;5021963;28;20089;-54
2022/03/06 00:12:16;;;;;;;47.97;18.03;;;0.10;99.40;;;;;;5014732;28;20030;-55
2022/03/06 00:14:41;;;;;;;43.57;15.43;;;0.10;99.50;;;;;;5012432;28;20113;-58
2022/03/06 00:17:07;;;;;;;55.43;20.20;;;0.10;99.60;;;;;;5011696;28;20038;-56
2022/03/06 00:19:33;;;;;;;76.33;24.70;;;0.20;99.60;;;;;;5017098;28;20029;-56
2022/03/06 00:21:59;;;;;;;73.87;21.47;;;0.10;99.70;;;;;;5016739;28;20415;-57
2022/03/06 00:24:24;;;;;;;66.47;20.80;;;0.10;99.80;;;;;;4995166;28;20053;-56
2022/03/06 00:26:50;;;;;;;71.33;20.43;;;0.10;99.80;;;;;;5019670;28;20501;-54
2022/03/06 00:29:15;;;;;;;49.90;16.13;;;0.10;99.90;;;;;;5021859;28;20530;-53
2022/03/06 00:31:41;;;;;;;102.73;27.37;;;0.10;99.90;;;;;;5019112;28;20126;-55
2022/03/06 00:34:08;;;;;;;113.90;34.07;;;0.00;99.90;;;;;;5027090;28;20064;-51
2022/03/06 00:36:33;;;;;;;63.97;25.23;;;0.00;99.90;;;;;;5010822;28;20104;-57
2022/03/06 00:38:59;;;;;;;70.37;26.47;;;-0.10;99.90;;;;;;5013450;28;20091;-57
2022/03/06 00:41:25;;;;;;;71.07;31.07;;;-0.20;99.90;;;;;;5013443;28;20484;-55
2022/03/06 00:43:51;;;;;;;39.83;15.87;;;-0.20;99.90;;;;;;5042075;28;20037;-49
2022/03/06 00:46:16;;;;;;;33.77;13.33;;;-0.20;99.90;;;;;;5023333;28;20042;-55
2022/03/06 00:48:42;;;;;;;28.43;13.03;;;-0.20;99.90;;;;;;5052051;23;20045;-57
2022/03/06 00:51:07;;;;;;;24.00;11.47;;;-0.30;99.90;;;;;;5021319;28;20084;-59
2022/03/06 00:53:33;;;;;;;20.63;10.73;;;-0.30;99.90;;;;;;5023755;28;20064;-59
2022/03/06 00:55:58;;;;;;;23.83;11.67;;;-0.40;99.90;;;;;;5018911;28;20525;-58
2022/03/06 00:58:24;;;;;;;27.50;12.73;;;-0.40;99.90;;;;;;5011391;28;20487;-59
2022/03/06 01:00:49;;;;;;;28.17;12.47;;;-0.40;99.90;;;;;;5000067;28;20474;-57
2022/03/06 01:03:18;;;;;;;34.83;14.43;;;-0.30;99.90;;;;;;5008668;28;20368;-58
2022/03/06 01:05:44;;;;;;;28.10;13.93;;;-0.30;99.90;;;;;;5005743;28;20056;-59
2022/03/06 01:08:10;;;;;;;29.90;13.00;;;-0.30;99.90;;;;;;5003049;28;20032;-59
2022/03/06 01:10:37;;;;;;;33.27;16.07;;;-0.40;99.90;;;;;;5007299;28;20038;-58
2022/03/06 01:13:04;;;;;;;45.37;19.00;;;-0.30;99.90;;;;;;5000591;28;20517;-58
2022/03/06 01:15:30;;;;;;;51.63;21.93;;;-0.30;99.90;;;;;;5018034;28;20029;-57
2022/03/06 01:17:56;;;;;;;56.43;21.93;;;-0.30;99.90;;;;;;5005901;28;20030;-57
2022/03/06 01:20:23;;;;;;;52.17;21.20;;;-0.40;99.90;;;;;;4999314;28;20034;-57
2022/03/06 01:22:50;;;;;;;54.30;21.80;;;-0.40;99.90;;;;;;4998151;28;20033;-58
2022/03/06 01:25:15;;;;;;;41.00;18.80;;;-0.40;99.90;;;;;;4988046;28;20038;-57
2022/03/06 01:27:41;;;;;;;35.60;16.67;;;-0.40;99.90;;;;;;5011996;28;20030;-59
2022/03/06 01:30:09;;;;;;;29.60;14.77;;;-0.50;99.90;;;;;;5012692;28;20080;-59
2022/03/06 01:32:35;;;;;;;34.30;15.37;;;-0.40;99.90;;;;;;5004725;28;20399;-59
2022/03/06 01:35:02;;;;;;;35.50;16.53;;;-0.50;99.90;;;;;;5003436;28;20057;-57
2022/03/06 01:37:28;;;;;;;35.77;17.77;;;-0.50;99.90;;;;;;5010349;28;20104;-57
2022/03/06 01:39:53;;;;;;;35.40;16.43;;;-0.60;99.90;;;;;;4999067;28;20105;-58
2022/03/06 01:42:19;;;;;;;33.03;15.43;;;-0.60;99.90;;;;;;4999549;28;20061;-60
2022/03/06 01:44:45;;;;;;;33.30;15.70;;;-0.70;99.90;;;;;;5004208;28;20036;-59
2022/03/06 01:47:12;;;;;;;31.17;16.13;;;-0.70;99.90;;;;;;5002983;28;20025;-59
2022/03/06 01:49:37;;;;;;;30.93;14.13;;;-0.70;99.90;;;;;;5008076;28;20038;-57
2022/03/06 01:52:03;;;;;;;28.53;14.17;;;-0.80;99.90;;;;;;5002712;28;20021;-59
2022/03/06 01:54:29;;;;;;;27.67;13.67;;;-0.80;99.90;;;;;;5008867;28;20022;-59
2022/03/06 01:56:55;;;;;;;28.00;13.73;;;-0.90;99.90;;;;;;5006105;28;20419;-56
2022/03/06 01:59:23;;;;;;;26.83;13.07;;;-0.90;99.90;;;;;;5020402;28;20025;-59
2022/03/06 02:01:48;;;;;;;28.83;13.70;;;-1.00;99.90;;;;;;5014342;28;20097;-59
2022/03/06 02:04:14;;;;;;;31.40;13.07;;;-1.10;99.90;;;;;;5015602;28;20059;-59
2022/03/06 02:06:39;;;;;;;32.63;14.90;;;-1.10;99.90;;;;;;5008555;28;20046;-59
2022/03/06 02:09:05;;;;;;;28.93;13.30;;;-1.10;99.90;;;;;;5011355;28;20034;-59
2022/03/06 02:11:31;;;;;;;26.00;12.70;;;-1.10;99.90;;;;;;5009312;28;20528;-59
2022/03/06 02:13:56;;;;;;;28.80;13.03;;;-1.10;99.90;;;;;;5009527;28;20100;-57
2022/03/06 02:16:22;;;;;;;27.70;12.50;;;-1.10;99.90;;;;;;5003928;28;20368;-59
2022/03/06 02:18:48;;;;;;;33.83;12.93;;;-1.10;99.90;;;;;;5009332;28;20111;-59
2022/03/06 02:21:14;;;;;;;27.43;12.43;;;-1.10;99.90;;;;;;5002800;28;20049;-59
2022/03/06 02:23:40;;;;;;;27.93;13.07;;;-1.10;99.90;;;;;;5008495;28;20116;-59
2022/03/06 02:26:07;;;;;;;26.20;12.87;;;-1.10;99.90;;;;;;4987979;28;20160;-58
2022/03/06 02:28:34;;;;;;;27.47;11.73;;;-1.10;99.90;;;;;;5006615;28;20109;-60
2022/03/06 02:31:00;;;;;;;27.30;11.83;;;-1.10;99.90;;;;;;5004907;28;20029;-59
2022/03/06 02:33:26;;;;;;;31.07;13.13;;;-1.10;99.90;;;;;;5008386;28;20113;-58
2022/03/06 02:35:52;;;;;;;26.37;12.90;;;-1.10;99.90;;;;;;5003336;28;20160;-58
2022/03/06 02:38:19;;;;;;;23.30;12.30;;;-1.10;99.90;;;;;;5007510;28;20160;-59
2022/03/06 02:40:45;;;;;;;32.50;12.93;;;-1.10;99.90;;;;;;5003112;28;20033;-55
2022/03/06 02:43:13;;;;;;;27.50;12.63;;;-1.10;99.90;;;;;;5008635;28;20022;-51
2022/03/06 02:45:40;;;;;;;26.93;12.73;;;-1.20;99.90;;;;;;5009153;28;20046;-59
2022/03/06 02:48:06;;;;;;;27.10;12.40;;;-1.20;99.90;;;;;;5011989;28;20112;-55
2022/03/06 02:50:34;;;;;;;26.97;11.33;;;-1.20;99.90;;;;;;5004136;28;20045;-59
2022/03/06 02:53:03;;;;;;;24.33;11.83;;;-1.20;99.90;;;;;;5007151;28;20022;-57
2022/03/06 02:55:29;;;;;;;27.40;12.20;;;-1.20;99.90;;;;;;5006481;28;20021;-59
2022/03/06 02:57:54;;;;;;;24.97;12.40;;;-1.20;99.90;;;;;;5002931;28;20030;-58
2022/03/06 03:00:22;;;;;;;24.40;11.97;;;-1.30;99.90;;;;;;5007235;28;20030;-59
2022/03/06 03:02:49;;;;;;;24.93;11.83;;;-1.30;99.90;;;;;;5006515;28;20406;-59
2022/03/06 03:05:16;;;;;;;25.43;12.53;;;-1.30;99.90;;;;;;5008246;28;20431;-58
2022/03/06 03:07:44;;;;;;;24.80;12.30;;;-1.40;99.90;;;;;;5007953;28;20100;-58
2022/03/06 03:10:13;;;;;;;22.03;11.93;;;-1.40;99.90;;;;;;5010927;28;20040;-59
2022/03/06 03:12:39;;;;;;;26.57;12.50;;;-1.30;99.90;;;;;;5006131;28;20026;-59
2022/03/06 03:15:06;;;;;;;22.40;11.60;;;-1.30;99.90;;;;;;4999717;28;20036;-60
2022/03/06 03:17:31;;;;;;;26.87;11.07;;;-1.30;99.90;;;;;;5002030;28;20023;-58
2022/03/06 03:19:57;;;;;;;25.77;12.90;;;-1.30;99.90;;;;;;5006162;28;20014;-58
2022/03/06 03:22:23;;;;;;;24.27;12.07;;;-1.30;99.90;;;;;;5003893;28;20372;-58
2022/03/06 03:24:48;;;;;;;26.67;12.37;;;-1.20;99.90;;;;;;5005016;28;20025;-58
2022/03/06 03:27:14;;;;;;;25.27;12.70;;;-1.20;99.90;;;;;;4980103;28;20834;-56
2022/03/06 03:29:39;;;;;;;23.90;11.83;;;-1.20;99.90;;;;;;5007152;28;20419;-59
2022/03/06 03:32:05;;;;;;;27.43;13.43;;;-1.20;99.90;;;;;;5003263;28;20061;-59
2022/03/06 03:34:31;;;;;;;28.00;12.53;;;-1.20;99.90;;;;;;4997959;28;20124;-60
2022/03/06 03:36:56;;;;;;;27.50;12.43;;;-1.10;99.90;;;;;;4996979;28;20022;-58
2022/03/06 03:39:22;;;;;;;23.83;12.30;;;-1.20;99.90;;;;;;5008305;28;20029;-60
2022/03/06 03:41:48;;;;;;;28.73;13.30;;;-1.10;99.90;;;;;;5001049;28;20021;-60
2022/03/06 03:44:13;;;;;;;21.93;10.77;;;-1.10;99.90;;;;;;5003015;28;20037;-60
2022/03/06 03:46:39;;;;;;;26.60;11.70;;;-1.00;99.90;;;;;;5000023;28;20046;-59
2022/03/06 03:49:04;;;;;;;31.27;12.83;;;-1.00;99.90;;;;;;5004008;28;20407;-60
2022/03/06 03:51:30;;;;;;;27.00;11.73;;;-0.90;99.90;;;;;;5002926;28;20061;-60
2022/03/06 03:53:56;;;;;;;24.63;13.57;;;-0.90;99.90;;;;;;4999638;28;20021;-60
2022/03/06 03:56:21;;;;;;;24.27;11.93;;;-0.80;99.90;;;;;;5005719;28;20033;-58
2022/03/06 03:58:47;;;;;;;26.40;11.83;;;-0.80;99.90;;;;;;5009800;28;20100;-60
2022/03/06 04:01:13;;;;;;;25.20;11.77;;;-0.80;99.90;;;;;;5006261;28;20560;-60
2022/03/06 04:03:39;;;;;;;23.50;12.13;;;-0.90;99.90;;;;;;5008147;28;20080;-59
2022/03/06 04:06:04;;;;;;;28.00;13.13;;;-0.90;99.90;;;;;;5008229;28;20033;-59
2022/03/06 04:08:30;;;;;;;24.90;11.63;;;-0.90;99.90;;;;;;5007089;28;20088;-58
2022/03/06 04:10:59;;;;;;;23.43;10.87;;;-0.90;99.90;;;;;;4995448;28;20381;-58
2022/03/06 04:13:25;;;;;;;28.47;12.00;;;-0.90;99.90;;;;;;5008942;28;20068;-58
2022/03/06 04:15:51;;;;;;;25.27;11.57;;;-0.90;99.90;;;;;;5005632;28;20018;-58
2022/03/06 04:18:16;;;;;;;23.40;12.30;;;-0.80;99.90;;;;;;5003191;28;20029;-59
2022/03/06 04:20:42;;;;;;;25.97;11.80;;;-0.80;99.90;;;;;;5009421;28;20581;-60
2022/03/06 04:23:08;;;;;;;20.50;11.17;;;-0.70;99.90;;;;;;5024878;28;20042;-58
2022/03/06 04:25:34;;;;;;;22.97;11.30;;;-0.70;99.90;;;;;;5003779;28;20030;-54
2022/03/06 04:27:59;;;;;;;22.50;10.97;;;-0.60;99.90;;;;;;4985886;28;20052;-59
2022/03/06 04:30:25;;;;;;;23.67;11.33;;;-0.60;99.90;;;;;;5001722;28;20038;-58
2022/03/06 04:32:51;;;;;;;28.63;12.80;;;-0.60;99.90;;;;;;5006081;28;20022;-58
2022/03/06 04:35:16;;;;;;;30.30;12.50;;;-0.60;99.90;;;;;;5007822;28;20120;-59
2022/03/06 04:37:42;;;;;;;25.30;11.17;;;-0.60;99.90;;;;;;4996049;28;20034;-58
2022/03/06 04:40:09;;;;;;;20.77;10.60;;;-0.60;99.90;;;;;;4998608;28;20109;-59
2022/03/06 04:42:35;;;;;;;22.43;12.10;;;-0.60;99.90;;;;;;5002068;28;20034;-59
2022/03/06 04:45:00;;;;;;;22.90;11.33;;;-0.50;99.90;;;;;;5009186;28;20104;-58
2022/03/06 04:47:26;;;;;;;22.60;11.43;;;-0.60;99.90;;;;;;5006837;28;20037;-58
2022/03/06 04:49:51;;;;;;;24.50;11.50;;;-0.50;99.90;;;;;;5004701;28;20045;-55
2022/03/06 04:52:17;;;;;;;23.70;12.80;;;-0.50;99.90;;;;;;4999275;28;20483;-58
2022/03/06 04:54:42;;;;;;;24.20;11.50;;;-0.50;99.90;;;;;;5001323;28;20373;-59
2022/03/06 04:57:08;;;;;;;24.97;11.87;;;-0.50;99.90;;;;;;4997338;28;20017;-56
2022/03/06 04:59:34;;;;;;;23.43;11.13;;;-0.50;99.90;;;;;;5007922;28;20483;-59
2022/03/06 05:02:00;;;;;;;25.80;11.23;;;-0.50;99.90;;;;;;5008704;28;20041;-59
2022/03/06 05:04:26;;;;;;;23.83;11.77;;;-0.50;99.90;;;;;;5007679;28;20037;-58
2022/03/06 05:06:51;;;;;;;29.27;12.63;;;-0.50;99.90;;;;;;5001866;28;20034;-58
2022/03/06 05:09:17;;;;;;;26.03;12.17;;;-0.50;99.90;;;;;;4998025;28;20025;-59
2022/03/06 05:11:43;;;;;;;21.83;11.50;;;-0.60;99.90;;;;;;5001769;28;20026;-57
2022/03/06 05:14:09;;;;;;;24.63;12.10;;;-0.60;99.90;;;;;;5001429;28;20072;-58
2022/03/06 05:16:34;;;;;;;29.43;14.03;;;-0.60;99.90;;;;;;4996434;28;20033;-59
2022/03/06 05:19:00;;;;;;;27.67;12.87;;;-0.70;99.90;;;;;;5008645;28;20856;-59
2022/03/06 05:21:26;;;;;;;23.87;12.40;;;-0.70;99.90;;;;;;5004176;28;20402;-58
2022/03/06 05:23:51;;;;;;;25.80;12.57;;;-0.70;99.90;;;;;;5005725;28;20026;-58
2022/03/06 05:26:17;;;;;;;24.37;11.97;;;-0.70;99.90;;;;;;4979550;28;20066;-58
2022/03/06 05:28:43;;;;;;;22.80;11.50;;;-0.80;99.90;;;;;;5000649;28;20026;-58
2022/03/06 05:31:09;;;;;;;25.53;11.90;;;-0.80;99.90;;;;;;4999086;28;20092;-58
2022/03/06 05:33:35;;;;;;;28.47;13.03;;;-0.90;99.90;;;;;;5004615;28;20423;-58
2022/03/06 05:36:01;;;;;;;27.50;11.97;;;-0.80;99.90;;;;;;5006339;28;20045;-59
2022/03/06 05:38:27;;;;;;;23.07;12.23;;;-0.80;99.90;;;;;;5003445;28;20029;-59
2022/03/06 05:40:52;;;;;;;24.57;12.70;;;-0.80;99.90;;;;;;5002881;28;20034;-59
2022/03/06 05:43:18;;;;;;;25.70;11.73;;;-0.80;99.90;;;;;;5009111;28;20022;-58
2022/03/06 05:45:45;;;;;;;26.93;13.30;;;-0.90;99.90;;;;;;5007353;28;20033;-58
2022/03/06 05:48:11;;;;;;;23.00;11.80;;;-0.80;99.90;;;;;;5009556;28;20045;-58
2022/03/06 05:50:36;;;;;;;26.20;12.57;;;-0.80;99.90;;;;;;5003325;28;20120;-56
2022/03/06 05:53:02;;;;;;;24.57;11.67;;;-0.70;99.90;;;;;;5005301;28;20062;-58
2022/03/06 05:55:30;;;;;;;26.70;13.20;;;-0.80;99.90;;;;;;4998819;28;20447;-58
2022/03/06 05:57:56;;;;;;;22.87;11.93;;;-0.80;99.90;;;;;;5008037;28;20491;-59
2022/03/06 06:00:22;;;;;;;26.27;13.17;;;-0.80;99.90;;;;;;5001028;28;20022;-58
2022/03/06 06:02:48;;;;;;;31.33;13.83;;;-0.80;99.90;;;;;;5004059;28;20030;-58
2022/03/06 06:05:15;;;;;;;25.53;13.53;;;-0.80;99.90;;;;;;5004615;28;20104;-57
2022/03/06 06:07:41;;;;;;;27.27;13.13;;;-0.80;99.90;;;;;;4998589;28;20045;-57
2022/03/06 06:10:07;;;;;;;23.97;12.13;;;-0.80;99.90;;;;;;5006475;28;20104;-57
2022/03/06 06:12:33;;;;;;;29.67;13.27;;;-0.80;99.90;;;;;;5007530;28;20033;-58
2022/03/06 06:14:58;;;;;;;27.77;12.37;;;-0.70;99.90;;;;;;4995795;28;20048;-57
2022/03/06 06:17:24;;;;;;;25.73;13.17;;;-0.70;99.90;;;;;;5002942;28;20026;-57
2022/03/06 06:19:50;;;;;;;23.83;11.77;;;-0.80;99.90;;;;;;5003132;28;20174;-58
2022/03/06 06:22:15;;;;;;;25.33;12.00;;;-0.70;99.90;;;;;;5006221;28;20033;-55
2022/03/06 06:24:41;;;;;;;28.80;14.50;;;-0.70;99.90;;;;;;5007480;28;20450;-59
2022/03/06 06:27:07;;;;;;;27.97;13.30;;;-0.70;99.90;;;;;;4991249;28;20069;-59
2022/03/06 06:29:32;;;;;;;25.47;12.13;;;-0.60;99.90;;;;;;5001477;28;20040;-57
2022/03/06 06:31:58;;;;;;;27.90;13.37;;;-0.60;99.90;;;;;;5008110;28;20049;-58
2022/03/06 06:34:24;;;;;;;27.80;14.30;;;-0.50;99.90;;;;;;5009835;28;20033;-57
2022/03/06 06:36:50;;;;;;;23.37;12.30;;;-0.30;99.90;;;;;;5005141;28;20030;-57
2022/03/06 06:39:17;;;;;;;21.23;11.33;;;-0.30;99.90;;;;;;5005805;28;20980;-58
2022/03/06 06:41:43;;;;;;;28.20;13.10;;;-0.20;99.90;;;;;;5003339;28;20065;-58
2022/03/06 06:44:09;;;;;;;24.53;12.93;;;-0.20;99.90;;;;;;5007832;28;20034;-56
2022/03/06 06:46:35;;;;;;;26.20;13.67;;;-0.10;99.90;;;;;;5006227;28;20033;-59
2022/03/06 06:49:03;;;;;;;29.57;13.03;;;0.00;99.90;;;;;;5008970;28;20434;-59
2022/03/06 06:51:30;;;;;;;25.53;13.27;;;0.00;99.90;;;;;;5005659;28;20022;-58
2022/03/06 06:53:56;;;;;;;26.57;13.23;;;0.10;99.90;;;;;;5006369;28;20029;-59
2022/03/06 06:56:21;;;;;;;31.23;14.07;;;0.10;99.90;;;;;;5001964;28;20404;-59
2022/03/06 07:01:12;;;;;;;28.83;13.23;;;0.40;99.90;;;;;;5041724;23;20115;-57
2022/03/06 07:03:38;;;;;;;29.33;13.50;;;0.40;99.90;;;;;;5021745;28;20036;-56
2022/03/06 07:06:03;;;;;;;28.77;15.00;;;0.40;99.90;;;;;;5016461;28;20484;-60
2022/03/06 07:08:29;;;;;;;28.13;12.60;;;0.40;99.90;;;;;;5027626;28;20491;-59
2022/03/06 07:10:55;;;;;;;30.20;14.25;;;0.40;99.90;;;;;;5005362;28;20134;-57
2022/03/06 07:13:20;;;;;;;27.42;13.38;;;0.50;99.90;;;;;;5006419;28;20084;-57
2022/03/06 07:15:46;;;;;;;29.13;14.63;;;0.60;99.90;;;;;;5008336;28;20503;-59
2022/03/06 07:18:12;;;;;;;27.17;13.13;;;0.70;99.90;;;;;;5011438;28;20080;-58
2022/03/06 07:20:38;;;;;;;27.25;13.32;;;0.70;99.90;;;;;;5008081;28;20130;-56
2022/03/06 07:23:03;;;;;;;27.95;14.25;;;0.80;99.90;;;;;;5009029;28;20037;-58
2022/03/06 07:25:29;;;;;;;26.05;13.27;;;0.90;99.90;;;;;;5009569;28;20034;-54
2022/03/06 07:27:54;;;;;;;22.88;13.00;;;1.00;99.90;;;;;;4992252;28;20061;-56
2022/03/06 07:30:21;;;;;;;26.13;13.75;;;1.10;99.90;;;;;;5004303;28;20057;-57
2022/03/06 07:32:51;;;;;;;24.30;12.38;;;1.20;99.90;;;;;;5007622;28;20026;-56
2022/03/06 07:35:18;;;;;;;31.98;13.25;;;1.30;99.90;;;;;;5008443;28;20475;-54
2022/03/06 07:37:44;;;;;;;24.05;12.70;;;1.50;99.90;;;;;;5007220;28;20499;-54
2022/03/06 07:40:12;;;;;;;27.05;13.73;;;1.60;99.90;;;;;;5008928;28;20022;-52
2022/03/06 07:42:38;;;;;;;24.38;12.85;;;1.60;99.90;;;;;;5001642;28;20029;-56
2022/03/06 07:45:04;;;;;;;29.15;14.57;;;1.60;99.90;;;;;;5002671;28;20034;-59
2022/03/06 07:47:30;;;;;;;25.58;13.43;;;1.70;99.90;;;;;;5007110;28;20022;-57
2022/03/06 07:49:56;;;;;;;25.38;12.02;;;1.70;99.90;;;;;;5001580;28;20088;-58
2022/03/06 07:52:21;;;;;;;24.15;12.90;;;1.80;99.90;;;;;;5003862;28;20184;-58
2022/03/06 07:54:47;;;;;;;22.00;11.73;;;1.80;99.90;;;;;;5005293;28;20026;-55
2022/03/06 07:57:13;;;;;;;20.75;10.93;;;2.00;99.90;;;;;;5005176;28;20033;-59
2022/03/06 07:59:38;;;;;;;22.27;11.20;;;2.10;99.90;;;;;;5009548;28;20476;-60
2022/03/06 08:02:04;;;;;;;18.25;10.63;;;2.40;99.90;;;;;;5008024;28;20057;-56
2022/03/06 08:04:30;;;;;;;21.75;10.30;;;2.60;99.90;;;;;;5005907;28;20062;-57
2022/03/06 08:06:55;;;;;;;26.92;11.75;;;2.80;99.90;;;;;;5003369;28;20030;-58
2022/03/06 08:09:24;;;;;;;24.00;11.70;;;2.90;99.90;;;;;;5004678;28;20050;-58
2022/03/06 08:11:50;;;;;;;24.50;13.23;;;3.10;99.90;;;;;;5002918;28;20464;-54
2022/03/06 08:14:15;;;;;;;25.38;13.80;;;3.30;99.90;;;;;;5008016;28;20041;-57
2022/03/06 08:16:41;;;;;;;24.52;13.50;;;3.30;99.90;;;;;;5001506;28;20033;-56
2022/03/06 08:19:07;;;;;;;22.02;12.10;;;3.20;99.90;;;;;;5002185;28;20030;-55
2022/03/06 08:21:32;;;;;;;21.65;12.05;;;3.20;99.90;;;;;;4998085;28;20037;-57
2022/03/06 08:23:58;;;;;;;23.60;12.75;;;3.40;99.90;;;;;;5007766;28;20065;-56
2022/03/06 08:26:23;;;;;;;19.58;11.73;;;3.60;99.90;;;;;;5005263;28;20479;-57
2022/03/06 08:28:49;;;;;;;22.95;12.18;;;3.70;99.90;;;;;;4988137;28;20170;-54
2022/03/06 08:31:15;;;;;;;22.25;11.98;;;3.80;99.30;;;;;;5006458;28;20044;-57
2022/03/06 08:33:41;;;;;;;19.48;11.73;;;3.70;99.70;;;;;;5002035;28;20041;-56
2022/03/06 08:36:06;;;;;;;20.30;11.63;;;3.60;99.10;;;;;;5004166;28;20022;-56
2022/03/06 08:38:32;;;;;;;18.67;9.90;;;3.50;98.80;;;;;;5004279;28;20022;-59
2022/03/06 08:40:57;;;;;;;21.33;11.70;;;3.60;98.80;;;;;;4977420;28;20519;-59
2022/03/06 08:43:23;;;;;;;23.58;11.88;;;3.70;98.70;;;;;;4993699;28;20034;-57
2022/03/06 08:45:49;;;;;;;20.67;12.07;;;3.70;99.30;;;;;;4985366;28;20101;-58
2022/03/06 08:48:15;;;;;;;18.05;10.32;;;3.70;98.80;;;;;;5002139;28;20033;-54
2022/03/06 08:50:40;;;;;;;20.35;11.25;;;3.70;98.60;;;;;;4985143;28;20038;-59
2022/03/06 08:53:06;;;;;;;18.83;11.55;;;3.60;98.50;;;;;;4994955;28;20041;-57
2022/03/06 08:55:32;;;;;;;20.08;9.90;;;3.60;98.10;;;;;;4982707;28;20492;-59
2022/03/06 08:57:58;;;;;;;21.00;11.15;;;3.80;97.40;;;;;;4989461;28;20022;-58
2022/03/06 09:00:24;;;;;;;20.48;10.68;;;3.90;97.30;;;;;;4988830;28;20038;-58
2022/03/06 09:02:50;;;;;;;18.63;10.23;;;3.90;97.90;;;;;;4987723;28;20025;-57
2022/03/06 09:05:15;;;;;;;20.92;10.38;;;4.00;97.40;;;;;;4984871;28;20022;-58
2022/03/06 09:07:41;;;;;;;16.88;9.77;;;4.20;96.50;;;;;;4987816;28;20457;-58
2022/03/06 09:10:07;;;;;;;18.05;10.43;;;4.20;95.90;;;;;;4984958;28;20085;-57
2022/03/06 09:12:33;;;;;;;18.88;9.77;;;4.30;95.70;;;;;;4979213;28;20030;-55
2022/03/06 09:14:59;;;;;;;17.48;9.77;;;4.40;95.70;;;;;;4986089;28;20065;-58
2022/03/06 09:17:25;;;;;;;18.98;9.48;;;4.50;94.80;;;;;;4986366;28;20030;-55
2022/03/06 09:19:51;;;;;;;18.30;10.45;;;4.60;95.00;;;;;;4988693;28;20078;-57
2022/03/06 09:22:17;;;;;;;18.00;9.93;;;4.80;94.70;;;;;;4989462;28;20038;-57
2022/03/06 09:24:42;;;;;;;19.25;10.30;;;5.10;94.10;;;;;;4987404;28;20044;-56
2022/03/06 09:27:08;;;;;;;16.90;10.65;;;5.70;94.60;;;;;;4971952;28;20034;-57
2022/03/06 09:29:34;;;;;;;19.20;10.88;;;6.40;93.50;;;;;;5000807;28;20116;-55
2022/03/06 09:31:59;;;;;;;17.55;11.13;;;7.10;93.00;;;;;;4999350;28;20109;-55
2022/03/06 09:34:25;;;;;;;15.57;10.18;;;7.60;92.10;;;;;;5008807;28;20037;-56
2022/03/06 09:36:50;;;;;;;17.77;10.15;;;8.00;91.70;;;;;;5005532;28;20088;-59
2022/03/06 09:39:16;;;;;;;16.50;10.10;;;7.90;90.90;;;;;;5005404;28;20037;-59
2022/03/06 09:41:42;;;;;;;16.60;10.30;;;7.90;90.60;;;;;;5003857;28;20045;-56
2022/03/06 09:44:12;;;;;;;15.43;10.65;;;8.20;89.30;;;;;;5002468;28;20033;-57
2022/03/06 09:46:38;;;;;;;21.38;11.30;;;8.00;89.80;;;;;;5009986;28;20033;-57
2022/03/06 09:49:06;;;;;;;21.85;11.35;;;8.20;90.00;;;;;;5012694;28;20566;-59
2022/03/06 09:51:40;;;;;;;21.23;11.02;;;8.30;86.00;;;;;;5011903;28;20037;-58
2022/03/06 09:54:06;;;;;;;;;;;8.50;85.80;;;;;;5009219;28;20496;-56
2022/03/06 09:56:32;;;;;;;22.70;12.93;;;8.30;85.30;;;;;;5011905;28;19916;-58
2022/03/06 09:58:58;;;;;;;18.10;11.23;;;8.00;86.00;;;;;;5012815;28;20034;-55
2022/03/06 10:01:23;;;;;;;16.88;10.52;;;8.20;85.40;;;;;;5012375;28;20133;-58
2022/03/06 10:03:49;;;;;;;23.58;11.15;;;8.70;85.60;;;;;;5011664;28;20546;-58
2022/03/06 10:06:14;;;;;;;21.40;12.60;;;9.00;85.00;;;;;;5011952;28;20038;-60
2022/03/06 10:08:40;;;;;;;21.15;12.07;;;8.90;87.20;;;;;;5009832;28;20030;-57
2022/03/06 10:11:11;;;;;;;18.15;11.75;;;8.50;88.40;;;;;;5001076;28;20042;-56
2022/03/06 10:13:40;;;;;;;22.60;12.65;;;8.20;87.70;;;;;;5011414;28;20112;-59
2022/03/06 10:16:17;;;;;;;25.83;13.80;;;8.50;87.80;;;;;;5011999;28;20117;-58
2022/03/06 10:18:52;;;;;;;14.82;9.10;;;8.70;86.90;;;;;;5012449;28;20022;-59
2022/03/06 10:21:25;;;;;;;15.63;9.75;;;9.10;79.00;;;;;;5010816;28;20037;-57
2022/03/06 10:23:56;;;;;;;15.93;9.55;;;8.80;76.80;;;;;;5010085;28;20026;-57
2022/03/06 10:26:27;;;;;;;16.40;10.15;;;8.80;76.70;;;;;;5005251;28;20042;-57
2022/03/06 10:29:04;;;;;;;19.38;9.43;;;8.60;75.10;;;;;;4993726;28;20050;-58
2022/03/06 10:31:32;;;;;;;14.63;8.55;;;8.40;75.00;;;;;;5017883;28;20415;-58
2022/03/06 10:34:03;;;;;;;14.35;9.50;;;8.40;74.70;;;;;;5010677;28;20022;-59
2022/03/06 10:36:40;;;;;;;15.77;9.77;;;8.20;75.40;;;;;;5006388;28;20562;-59
2022/03/06 10:39:14;;;;;;;14.13;8.70;;;8.40;76.00;;;;;;5011206;28;20150;-59
2022/03/06 10:41:43;;;;;;;16.90;9.48;;;8.10;76.40;;;;;;5001150;28;20559;-60
2022/03/06 10:44:10;;;;;;;17.60;10.35;;;8.50;74.50;;;;;;4995559;28;20439;-57
2022/03/06 10:46:37;;;;;;;16.10;9.93;;;8.50;75.30;;;;;;5001544;28;20508;-60
2022/03/06 10:49:12;;;;;;;14.93;9.27;;;8.50;74.00;;;;;;5005290;28;20104;-59
2022/03/06 10:51:43;;;;;;;15.48;9.85;;;8.60;73.80;;;;;;5011645;28;20442;-61
2022/03/06 10:54:09;;;;;;;19.58;9.38;;;8.60;74.40;;;;;;5011405;28;20022;-57
2022/03/06 10:56:35;;;;;;;19.45;10.30;;;8.50;71.80;;;;;;5010634;28;20044;-59
2022/03/06 10:59:04;;;;;;;18.05;10.23;;;8.20;73.70;;;;;;5012230;28;20045;-56
2022/03/06 11:01:30;;;;;;;15.52;9.60;;;8.10;76.40;;;;;;5011804;28;20041;-55
2022/03/06 11:03:59;;;;;;;17.83;9.93;;;8.00;73.90;;;;;;5011214;28;20030;-53
2022/03/06 11:06:26;;;;;;;17.65;10.13;;;7.90;73.90;;;;;;4994681;28;20030;-57
2022/03/06 11:08:52;;;;;;;15.68;8.98;;;7.60;75.20;;;;;;4992758;28;20507;-57
2022/03/06 11:11:19;;;;;;;20.48;10.90;;;7.60;74.30;;;;;;4991393;28;20117;-59
2022/03/06 11:13:45;;;;;;;16.13;9.70;;;7.50;75.60;;;;;;5009817;28;20084;-58
2022/03/06 11:16:11;;;;;;;17.45;10.02;;;7.30;74.90;;;;;;5011270;28;20444;-58
2022/03/06 11:18:38;;;;;;;17.30;10.40;;;7.30;74.50;;;;;;5003145;28;20029;-59
2022/03/06 11:21:04;;;;;;;15.82;9.23;;;7.50;74.60;;;;;;4999532;28;20026;-57
2022/03/06 11:23:39;;;;;;;18.88;9.77;;;7.80;74.60;;;;;;5005413;28;20088;-57
2022/03/06 11:26:13;;;;;;;17.98;10.18;;;8.20;72.70;;;;;;5006011;28;20026;-56
2022/03/06 11:29:04;;;;;;;16.02;9.05;;;8.50;72.10;;;;;;4996712;28;20045;-57
2022/03/06 11:31:47;;;;;;;16.27;9.93;;;8.40;73.20;;;;;;5011378;28;20109;-56
2022/03/06 11:34:26;;;;;;;15.95;8.98;;;8.30;71.70;;;;;;4999520;28;20026;-56
2022/03/06 11:36:53;;;;;;;14.77;8.48;;;8.20;71.30;;;;;;5011225;28;20117;-56
2022/03/06 11:39:30;;;;;;;13.90;8.38;;;8.20;72.50;;;;;;5003398;28;20026;-59
2022/03/06 11:42:07;;;;;;;13.95;9.05;;;7.80;72.70;;;;;;4993756;28;20048;-59
2022/03/06 11:44:35;;;;;;;16.48;9.02;;;7.60;73.30;;;;;;5010561;28;20500;-59
2022/03/06 11:47:13;;;;;;;13.38;8.30;;;7.30;72.80;;;;;;5010337;28;20447;-57
2022/03/06 11:49:39;;;;;;;15.82;9.55;;;7.10;76.30;;;;;;5003419;28;20044;-57
2022/03/06 11:52:34;;;;;;;14.75;8.63;;;7.20;74.70;;;;;;4994791;28;20033;-57
2022/03/06 11:55:02;;;;;;;15.05;9.55;;;7.20;75.50;;;;;;5003524;28;20495;-56
2022/03/06 11:57:42;;;;;;;14.45;8.32;;;7.00;74.50;;;;;;5005445;28;20029;-56
2022/03/06 12:00:26;;;;;;;10.80;7.50;;;7.10;74.00;;;;;;5003312;28;20100;-58
2022/03/06 12:03:00;;;;;;;12.45;8.02;;;7.30;74.00;;;;;;5005797;28;20443;-55
2022/03/06 12:05:47;;;;;;;12.48;7.53;;;7.50;73.50;;;;;;5000046;28;20033;-57
2022/03/06 12:08:15;;;;;;;12.40;8.00;;;7.50;71.90;;;;;;5003531;28;20030;-59
2022/03/06 12:10:44;;;;;;;10.40;6.55;;;7.50;72.60;;;;;;4990639;28;20045;-59
2022/03/06 12:13:27;;;;;;;10.90;6.75;;;7.50;72.50;;;;;;4990695;28;20088;-57
2022/03/06 12:16:01;;;;;;;11.50;7.35;;;7.40;73.40;;;;;;4990755;28;20038;-58
2022/03/06 12:18:27;;;;;;;11.98;7.20;;;7.20;72.70;;;;;;5010038;28;20022;-58
2022/03/06 12:20:52;;;;;;;12.32;7.75;;;6.90;73.30;;;;;;5006196;28;20635;-58
2022/03/06 12:23:22;;;;;;;12.20;7.70;;;6.90;73.50;;;;;;5009039;28;20503;-58
2022/03/06 12:25:53;;;;;;;15.50;8.80;;;6.80;73.00;;;;;;4996661;28;20128;-57
2022/03/06 12:28:20;;;;;;;10.77;7.03;;;6.90;73.50;;;;;;4994173;28;20462;-58
2022/03/06 12:30:46;;;;;;;11.98;7.95;;;7.00;72.60;;;;;;5001725;28;20608;-59
2022/03/06 12:33:29;;;;;;;11.40;7.55;;;7.00;75.90;;;;;;4999961;28;20443;-60